Time;durP1;ratioP1;P1;durP2;ratioP2;P2;SDS_P1;SDS_P2;PMS_P1;PMS_P2;Temp;Humidity;BMP_temperature;BMP_pressure;BME280_temperature;BME280_humidity;BME280_pressure;Samples;Min_cycle;Max_cycle;Signal;HPM_P1;HPM_P2
2023/07/19 00:02:17;;;;;;;8.03;3.90;;;19.50;99.90;;;;;;5033025;28;20201;-68
2023/07/19 00:04:43;;;;;;;6.13;4.67;;;19.40;99.90;;;;;;5032420;28;20277;-66
2023/07/19 00:07:11;;;;;;;7.40;4.47;;;19.40;99.90;;;;;;5036524;28;20205;-79
2023/07/19 00:09:36;;;;;;;5.93;4.37;;;19.40;99.90;;;;;;5031705;28;20681;-80
2023/07/19 00:12:02;;;;;;;6.93;4.30;;;19.40;99.90;;;;;;5033180;28;20205;-73
2023/07/19 00:14:28;;;;;;;5.70;4.20;;;19.40;99.90;;;;;;5026820;28;21007;-65
2023/07/19 00:16:53;;;;;;;6.53;4.80;;;19.40;99.90;;;;;;5037491;28;20194;-66
2023/07/19 00:19:19;;;;;;;7.70;4.47;;;19.40;99.90;;;;;;5035458;28;20209;-66
2023/07/19 00:21:44;;;;;;;6.53;4.57;;;19.30;99.90;;;;;;4971857;28;20246;-64
2023/07/19 00:24:10;;;;;;;7.03;4.63;;;19.20;99.90;;;;;;5037925;28;20988;-65
2023/07/19 00:26:35;;;;;;;9.80;5.03;;;19.20;99.90;;;;;;5033995;28;20251;-65
2023/07/19 00:29:00;;;;;;;7.70;4.33;;;19.20;99.90;;;;;;5031523;28;20703;-65
2023/07/19 00:31:26;;;;;;;7.27;4.40;;;19.20;99.90;;;;;;5029166;28;20275;-64
2023/07/19 00:33:51;;;;;;;5.77;4.17;;;19.10;99.90;;;;;;5037337;28;20234;-65
2023/07/19 00:36:17;;;;;;;6.40;4.80;;;19.10;99.90;;;;;;5029826;28;20546;-67
2023/07/19 00:38:42;;;;;;;6.50;4.73;;;19.10;99.90;;;;;;5032853;28;21220;-67
2023/07/19 00:41:08;;;;;;;6.20;4.50;;;19.10;99.90;;;;;;5032688;28;20245;-69
2023/07/19 00:43:33;;;;;;;11.57;4.77;;;19.10;99.90;;;;;;5037148;28;20201;-69
2023/07/19 00:45:59;;;;;;;6.23;3.20;;;19.00;99.90;;;;;;5035439;28;20296;-69
2023/07/19 00:48:24;;;;;;;5.43;3.20;;;19.00;99.90;;;;;;5030750;28;20202;-66
2023/07/19 00:50:52;;;;;;;4.33;2.53;;;18.90;99.90;;;;;;5037197;28;20283;-69
2023/07/19 00:53:18;;;;;;;3.57;2.90;;;18.90;99.90;;;;;;5030191;28;20203;-69
2023/07/19 00:55:48;;;;;;;3.70;2.67;;;18.90;99.90;;;;;;5036982;28;20205;-67
2023/07/19 00:58:15;;;;;;;3.03;2.53;;;18.90;99.90;;;;;;5036018;28;20212;-69
2023/07/19 01:00:41;;;;;;;2.40;2.20;;;18.80;99.90;;;;;;5024651;28;20571;-69
2023/07/19 01:03:06;;;;;;;3.60;2.30;;;18.80;99.90;;;;;;5028039;28;20215;-69
2023/07/19 01:05:32;;;;;;;3.80;2.67;;;18.80;99.90;;;;;;5032312;28;20205;-69
2023/07/19 01:07:58;;;;;;;3.37;2.67;;;18.80;99.90;;;;;;5027642;28;20663;-68
2023/07/19 01:10:27;;;;;;;4.67;3.10;;;18.80;99.90;;;;;;5035609;28;20237;-68
2023/07/19 01:13:06;;;;;;;5.03;2.67;;;18.70;99.90;;;;;;5037209;28;20211;-68
2023/07/19 01:15:31;;;;;;;2.17;1.97;;;18.50;99.90;;;;;;5036479;28;20204;-68
2023/07/19 01:17:57;;;;;;;3.13;2.13;;;18.50;99.90;;;;;;5034843;28;20263;-69
2023/07/19 01:20:22;;;;;;;2.30;2.10;;;18.50;99.90;;;;;;5036593;28;20207;-69
2023/07/19 01:22:48;;;;;;;2.37;2.13;;;18.50;99.90;;;;;;4991055;28;20224;-64
2023/07/19 01:25:13;;;;;;;5.87;2.20;;;18.50;99.90;;;;;;5039304;28;20432;-64
2023/07/19 01:27:40;;;;;;;2.20;2.00;;;18.50;99.90;;;;;;5040691;28;20330;-64
2023/07/19 01:30:07;;;;;;;3.40;1.93;;;18.50;99.90;;;;;;5038399;28;20583;-63
2023/07/19 01:32:32;;;;;;;5.07;2.00;;;18.40;99.90;;;;;;5039237;28;20208;-62
2023/07/19 01:34:58;;;;;;;5.60;2.00;;;18.40;99.90;;;;;;5040285;28;20828;-63
2023/07/19 01:37:23;;;;;;;3.20;2.90;;;18.40;99.90;;;;;;5038296;28;20603;-64
2023/07/19 01:39:49;;;;;;;4.17;2.20;;;18.40;99.90;;;;;;5034958;28;20198;-64
2023/07/19 01:42:16;;;;;;;5.00;2.40;;;18.40;99.90;;;;;;5036080;28;20208;-64
2023/07/19 01:44:42;;;;;;;3.47;2.43;;;18.30;99.90;;;;;;5031861;28;20199;-65
2023/07/19 01:47:08;;;;;;;4.63;2.70;;;18.30;99.90;;;;;;5032320;28;20672;-64
2023/07/19 01:49:33;;;;;;;3.53;2.53;;;18.30;99.90;;;;;;5035302;28;20217;-64
2023/07/19 01:51:59;;;;;;;6.23;2.87;;;18.30;99.90;;;;;;5035061;28;20218;-64
2023/07/19 01:54:24;;;;;;;4.40;2.10;;;18.20;99.90;;;;;;5035718;28;20198;-65
2023/07/19 01:56:49;;;;;;;2.87;2.43;;;18.20;99.90;;;;;;5029705;28;20659;-65
2023/07/19 01:59:15;;;;;;;2.90;2.43;;;18.10;99.90;;;;;;5035093;28;20252;-66
2023/07/19 02:01:42;;;;;;;4.60;2.13;;;18.10;99.90;;;;;;5039925;28;20217;-66
2023/07/19 02:04:07;;;;;;;3.50;2.30;;;18.10;99.90;;;;;;5035281;28;20212;-66
2023/07/19 02:06:33;;;;;;;2.50;2.30;;;18.10;99.90;;;;;;5035451;28;20205;-66
2023/07/19 02:08:59;;;;;;;3.77;2.77;;;18.10;99.90;;;;;;5032291;28;20340;-65
2023/07/19 02:11:24;;;;;;;2.67;2.30;;;18.20;99.90;;;;;;5017059;28;20560;-65
2023/07/19 02:13:49;;;;;;;3.07;2.13;;;18.20;99.90;;;;;;5034923;28;20194;-65
2023/07/19 02:16:15;;;;;;;7.00;2.47;;;18.10;99.90;;;;;;5034982;28;20453;-66
2023/07/19 02:18:40;;;;;;;2.20;2.00;;;18.10;99.90;;;;;;5032194;28;20255;-65
2023/07/19 02:21:06;;;;;;;3.30;2.30;;;18.00;99.90;;;;;;5032728;28;20205;-66
2023/07/19 02:23:33;;;;;;;5.03;2.77;;;18.00;99.90;;;;;;4986382;28;20210;-66
2023/07/19 02:25:59;;;;;;;4.30;2.10;;;17.90;99.90;;;;;;5038718;28;20293;-68
2023/07/19 02:28:24;;;;;;;2.77;2.40;;;17.90;99.90;;;;;;5034958;28;20313;-66
2023/07/19 02:30:49;;;;;;;8.03;3.60;;;17.90;99.90;;;;;;5032985;28;20287;-67
2023/07/19 02:33:15;;;;;;;3.53;3.07;;;17.80;99.90;;;;;;5031483;28;20258;-66
2023/07/19 02:35:41;;;;;;;7.43;2.63;;;17.80;99.90;;;;;;5038234;28;20255;-66
2023/07/19 02:38:07;;;;;;;3.63;2.50;;;17.80;99.90;;;;;;5036520;28;20204;-66
2023/07/19 02:40:33;;;;;;;4.80;3.07;;;17.80;99.90;;;;;;5029627;28;20237;-65
2023/07/19 02:42:58;;;;;;;3.77;2.57;;;17.80;99.90;;;;;;5039192;28;20211;-65
2023/07/19 02:45:24;;;;;;;6.23;2.93;;;17.80;99.90;;;;;;5031240;28;20208;-65
2023/07/19 02:47:50;;;;;;;5.50;3.27;;;18.00;99.90;;;;;;5030795;28;20250;-67
2023/07/19 02:50:19;;;;;;;3.20;2.60;;;18.00;99.90;;;;;;5037516;28;20238;-66
2023/07/19 02:52:45;;;;;;;8.83;2.97;;;18.00;99.90;;;;;;5035904;28;20223;-63
2023/07/19 02:55:10;;;;;;;4.50;2.90;;;18.00;99.90;;;;;;5038896;28;20709;-63
2023/07/19 02:57:36;;;;;;;4.70;3.33;;;17.90;99.90;;;;;;5037475;28;20302;-63
2023/07/19 03:00:02;;;;;;;4.47;3.10;;;17.90;99.90;;;;;;5037509;28;20222;-63
2023/07/19 03:02:28;;;;;;;2.80;2.50;;;17.90;99.90;;;;;;5039162;28;20677;-63
2023/07/19 03:04:53;;;;;;;3.53;2.90;;;17.90;99.90;;;;;;5036684;28;20214;-63
2023/07/19 03:07:20;;;;;;;4.77;3.10;;;17.90;99.90;;;;;;5038781;28;20264;-64
2023/07/19 03:09:45;;;;;;;3.03;2.57;;;17.80;99.90;;;;;;5038110;28;20216;-64
2023/07/19 03:12:10;;;;;;;2.27;1.97;;;17.90;99.90;;;;;;5038646;28;20254;-64
2023/07/19 03:14:36;;;;;;;2.33;2.13;;;18.00;99.90;;;;;;5034769;28;20197;-64
2023/07/19 03:17:01;;;;;;;2.50;2.30;;;18.10;99.90;;;;;;5038595;28;20270;-64
2023/07/19 03:19:27;;;;;;;3.77;2.17;;;18.20;99.90;;;;;;5036108;28;20204;-64
2023/07/19 03:21:52;;;;;;;3.80;2.50;;;18.20;99.90;;;;;;4993249;28;20216;-65
2023/07/19 03:24:21;;;;;;;2.23;2.13;;;18.10;99.90;;;;;;5033644;28;20347;-65
2023/07/19 03:26:46;;;;;;;2.63;2.43;;;18.10;99.90;;;;;;5039155;28;20208;-62
2023/07/19 03:29:12;;;;;;;2.20;1.93;;;18.10;99.90;;;;;;5037721;28;20212;-68
2023/07/19 03:31:37;;;;;;;3.03;2.70;;;18.10;99.90;;;;;;5036592;28;20308;-65
2023/07/19 03:34:03;;;;;;;3.67;2.30;;;18.10;99.90;;;;;;5038130;28;20288;-64
2023/07/19 03:36:28;;;;;;;2.77;2.27;;;18.10;99.90;;;;;;5036405;28;20220;-64
2023/07/19 03:38:54;;;;;;;3.37;2.00;;;18.10;99.90;;;;;;5035467;28;20216;-65
2023/07/19 03:41:19;;;;;;;2.67;2.23;;;18.20;99.90;;;;;;5037867;28;20204;-65
2023/07/19 03:43:45;;;;;;;4.63;2.30;;;18.20;99.90;;;;;;5033023;28;20266;-65
2023/07/19 03:46:10;;;;;;;3.50;2.20;;;18.20;99.90;;;;;;5036147;28;20224;-65
2023/07/19 03:48:37;;;;;;;2.23;2.03;;;18.20;99.90;;;;;;5030986;28;20200;-66
2023/07/19 03:51:03;;;;;;;3.27;2.33;;;18.20;99.90;;;;;;5031191;28;20228;-66
2023/07/19 03:53:29;;;;;;;2.97;2.77;;;18.20;99.90;;;;;;5031440;28;20297;-64
2023/07/19 03:55:56;;;;;;;2.50;2.13;;;18.20;99.90;;;;;;5029659;28;20289;-65
2023/07/19 03:58:24;;;;;;;2.73;2.00;;;18.20;99.90;;;;;;5028838;28;20224;-64
2023/07/19 04:00:52;;;;;;;2.90;2.50;;;18.30;99.90;;;;;;5030323;28;20206;-65
2023/07/19 04:03:18;;;;;;;3.57;2.43;;;18.30;99.90;;;;;;5030289;28;20203;-65
2023/07/19 04:05:44;;;;;;;2.67;2.07;;;18.30;99.90;;;;;;5028845;28;20204;-65
2023/07/19 04:08:10;;;;;;;2.77;1.77;;;18.40;99.90;;;;;;5027615;28;20613;-65
2023/07/19 04:10:35;;;;;;;2.50;1.93;;;18.50;99.90;;;;;;5037646;28;20214;-66
2023/07/19 04:13:01;;;;;;;3.67;1.90;;;18.60;99.90;;;;;;5029781;28;20198;-65
2023/07/19 04:15:26;;;;;;;2.33;2.03;;;18.70;99.90;;;;;;5034708;28;20574;-65
2023/07/19 04:17:52;;;;;;;3.33;1.73;;;18.80;99.90;;;;;;5031052;28;20301;-66
2023/07/19 04:20:17;;;;;;;5.77;2.10;;;18.80;99.90;;;;;;5037044;28;20336;-65
2023/07/19 04:22:43;;;;;;;3.03;2.03;;;18.80;99.90;;;;;;4994137;28;20197;-66
2023/07/19 04:25:09;;;;;;;5.10;2.10;;;18.80;99.90;;;;;;5032716;28;20207;-65
2023/07/19 04:27:34;;;;;;;2.87;1.50;;;18.70;99.90;;;;;;5032113;28;20206;-73
2023/07/19 04:30:00;;;;;;;3.97;2.23;;;18.70;99.90;;;;;;5037320;28;20211;-76
2023/07/19 04:32:26;;;;;;;2.50;1.70;;;18.70;99.90;;;;;;5037871;28;20199;-77
2023/07/19 04:34:53;;;;;;;1.87;1.77;;;18.80;99.90;;;;;;5035189;28;20253;-68
2023/07/19 04:37:18;;;;;;;3.23;1.90;;;18.80;99.90;;;;;;5029071;28;20217;-70
2023/07/19 04:39:44;;;;;;;1.60;1.50;;;18.80;99.90;;;;;;5033384;28;20306;-69
2023/07/19 04:42:09;;;;;;;3.47;1.73;;;18.80;99.80;;;;;;5034019;28;20292;-71
2023/07/19 04:44:35;;;;;;;1.87;1.63;;;18.80;99.90;;;;;;5032880;28;20204;-76
2023/07/19 04:47:00;;;;;;;2.63;1.97;;;18.90;99.40;;;;;;5033666;28;20203;-75
2023/07/19 04:49:26;;;;;;;2.53;2.10;;;18.90;99.30;;;;;;5034892;28;20208;-72
2023/07/19 04:51:51;;;;;;;2.80;1.97;;;18.90;99.00;;;;;;5035047;28;20217;-72
2023/07/19 04:54:17;;;;;;;2.03;1.60;;;19.00;99.30;;;;;;5034465;28;20205;-71
2023/07/19 04:56:42;;;;;;;2.60;1.90;;;19.00;98.60;;;;;;5037059;28;20294;-72
2023/07/19 04:59:08;;;;;;;5.23;2.20;;;19.00;98.60;;;;;;5037597;28;20283;-71
2023/07/19 05:01:34;;;;;;;3.90;2.10;;;19.10;98.30;;;;;;5038235;28;20202;-72
2023/07/19 05:03:59;;;;;;;2.77;2.00;;;19.10;98.60;;;;;;5038744;28;20204;-72
2023/07/19 05:06:25;;;;;;;2.00;1.80;;;19.20;98.40;;;;;;5040873;28;20684;-72
2023/07/19 05:08:50;;;;;;;2.17;1.80;;;19.20;98.30;;;;;;5040936;28;20198;-75
2023/07/19 05:11:19;;;;;;;3.47;1.93;;;19.20;98.60;;;;;;5036640;28;20669;-72
2023/07/19 05:13:45;;;;;;;4.00;2.27;;;19.20;98.10;;;;;;5040822;28;20295;-76
2023/07/19 05:16:10;;;;;;;3.23;1.80;;;19.20;98.30;;;;;;5038683;28;20542;-76
2023/07/19 05:18:35;;;;;;;4.80;1.67;;;19.30;98.70;;;;;;5038481;28;20196;-69
2023/07/19 05:21:01;;;;;;;2.53;1.80;;;19.00;99.20;;;;;;5038197;28;20440;-70
2023/07/19 05:23:27;;;;;;;3.43;1.90;;;18.90;99.90;;;;;;4988775;28;20297;-67
2023/07/19 05:25:52;;;;;;;1.90;1.77;;;18.90;99.90;;;;;;5041991;28;20266;-71
2023/07/19 05:28:20;;;;;;;1.70;1.50;;;19.10;98.80;;;;;;5020042;28;20198;-76
2023/07/19 05:30:45;;;;;;;2.30;1.97;;;19.20;98.60;;;;;;5033116;28;20957;-74
2023/07/19 05:33:11;;;;;;;2.27;1.37;;;19.30;98.40;;;;;;5040168;28;20204;-70
2023/07/19 05:35:37;;;;;;;3.87;1.43;;;19.40;97.90;;;;;;5032666;28;20188;-71
2023/07/19 05:38:03;;;;;;;2.67;1.80;;;19.40;97.60;;;;;;5031895;28;20659;-72
2023/07/19 05:40:31;;;;;;;2.27;1.60;;;19.30;97.80;;;;;;5039600;28;20665;-67
2023/07/19 05:42:56;;;;;;;1.63;1.53;;;19.10;98.70;;;;;;5035989;28;20215;-70
2023/07/19 05:45:22;;;;;;;1.77;1.67;;;19.10;98.70;;;;;;5040002;28;20211;-75
2023/07/19 05:47:47;;;;;;;2.80;1.60;;;19.30;98.40;;;;;;5037501;28;20198;-73
2023/07/19 05:50:13;;;;;;;2.63;1.90;;;19.30;99.10;;;;;;5030749;28;20235;-73
2023/07/19 05:52:39;;;;;;;2.80;2.10;;;19.20;99.60;;;;;;5035106;28;20206;-73
2023/07/19 05:55:06;;;;;;;3.07;2.00;;;19.20;99.90;;;;;;5016953;28;20192;-73
2023/07/19 05:57:32;;;;;;;2.93;2.00;;;19.20;99.90;;;;;;5035258;28;20200;-73
2023/07/19 06:00:11;;;;;;;4.97;1.83;;;19.30;99.90;;;;;;5037390;28;20301;-72
2023/07/19 06:02:37;;;;;;;3.53;2.63;;;19.40;99.00;;;;;;5037228;28;20688;-80
2023/07/19 06:05:02;;;;;;;7.27;1.80;;;19.30;99.50;;;;;;5039789;28;20204;-69
2023/07/19 06:07:28;;;;;;;8.73;2.10;;;19.30;99.40;;;;;;5038100;28;20253;-69
2023/07/19 06:09:53;;;;;;;3.03;1.70;;;19.60;99.60;;;;;;5037452;28;20205;-69
2023/07/19 06:12:19;;;;;;;4.80;1.90;;;19.80;98.60;;;;;;5038533;28;20188;-71
2023/07/19 06:14:45;;;;;;;2.77;1.87;;;20.00;99.00;;;;;;5026788;28;20222;-81
2023/07/19 06:17:11;;;;;;;5.23;2.20;;;20.10;98.30;;;;;;5035528;28;20280;-82
2023/07/19 06:19:37;;;;;;;7.43;2.13;;;19.90;99.70;;;;;;5019898;28;20213;-76
2023/07/19 06:22:02;;;;;;;2.97;1.97;;;19.90;99.50;;;;;;5039446;28;20199;-74
2023/07/19 06:24:28;;;;;;;6.23;2.80;;;19.90;99.80;;;;;;5037317;28;20252;-69
2023/07/19 06:26:54;;;;;;;5.93;2.17;;;19.90;99.90;;;;;;5037635;28;20198;-76
2023/07/19 06:29:22;;;;;;;4.50;2.00;;;20.00;99.90;;;;;;5035918;28;20222;-79
2023/07/19 06:31:47;;;;;;;5.70;1.70;;;20.10;99.70;;;;;;5038624;28;20362;-74
2023/07/19 06:34:12;;;;;;;5.90;1.83;;;20.10;98.10;;;;;;5037611;28;20308;-72
2023/07/19 06:36:38;;;;;;;2.00;1.80;;;20.20;98.20;;;;;;5039020;28;20199;-73
2023/07/19 06:39:04;;;;;;;1.50;1.40;;;20.30;98.40;;;;;;5037333;28;20337;-70
2023/07/19 06:41:30;;;;;;;1.77;1.67;;;20.40;97.60;;;;;;5034756;28;20905;-70
2023/07/19 06:43:57;;;;;;;6.83;1.60;;;20.50;97.30;;;;;;5039279;28;20285;-70
2023/07/19 06:46:22;;;;;;;3.47;1.70;;;20.60;95.80;;;;;;5038736;28;20205;-69
2023/07/19 06:48:48;;;;;;;2.13;1.90;;;20.50;95.50;;;;;;5038692;28;20198;-71
2023/07/19 06:51:13;;;;;;;2.07;1.70;;;20.40;95.70;;;;;;5037782;28;20222;-72
2023/07/19 06:53:39;;;;;;;1.70;1.50;;;20.40;95.20;;;;;;5039772;28;20205;-78
2023/07/19 06:56:05;;;;;;;3.50;2.33;;;20.50;94.70;;;;;;5038105;28;20281;-75
2023/07/19 06:58:31;;;;;;;3.23;2.70;;;20.60;95.30;;;;;;5041758;28;20335;-78
2023/07/19 07:00:56;;;;;;;2.83;1.60;;;20.60;94.90;;;;;;5024059;28;20248;-78
2023/07/19 07:03:22;;;;;;;2.77;1.97;;;20.70;94.80;;;;;;5039433;28;20687;-79
2023/07/19 07:05:48;;;;;;;4.33;2.00;;;20.90;94.80;;;;;;5036262;28;20679;-73
2023/07/19 07:08:13;;;;;;;1.70;1.50;;;21.30;93.50;;;;;;5038224;28;20210;-76
2023/07/19 07:10:45;;;;;;;4.23;1.90;;;21.30;94.10;;;;;;5038456;28;20842;-73
2023/07/19 07:13:11;;;;;;;2.37;2.10;;;21.40;93.40;;;;;;5037048;28;20293;-75
2023/07/19 07:15:36;;;;;;;2.60;1.97;;;21.40;94.30;;;;;;5035861;28;20201;-73
2023/07/19 07:18:02;;;;;;;1.97;1.60;;;21.40;94.70;;;;;;5031090;28;20197;-72
2023/07/19 07:20:27;;;;;;;2.47;1.90;;;21.60;94.60;;;;;;5037299;28;20212;-73
2023/07/19 07:22:55;;;;;;;3.17;2.20;;;21.70;95.30;;;;;;5033219;28;20739;-75
2023/07/19 07:25:20;;;;;;;2.30;2.10;;;21.70;94.00;;;;;;5037737;28;20284;-73
2023/07/19 07:27:46;;;;;;;2.57;2.20;;;21.70;93.80;;;;;;5034475;28;20621;-73
2023/07/19 07:30:12;;;;;;;4.07;1.93;;;21.70;94.70;;;;;;5037444;28;20725;-69
2023/07/19 07:32:37;;;;;;;3.13;2.30;;;21.60;95.10;;;;;;5037481;28;20205;-68
2023/07/19 07:35:06;;;;;;;3.33;1.87;;;21.70;94.90;;;;;;5033361;28;20962;-73
2023/07/19 07:37:31;;;;;;;2.57;2.03;;;21.50;94.60;;;;;;5031573;28;20207;-72
2023/07/19 07:39:57;;;;;;;1.87;1.50;;;21.80;93.80;;;;;;5036233;28;20226;-71
2023/07/19 07:42:24;;;;;;;4.53;2.27;;;21.80;94.40;;;;;;5038617;28;20282;-71
2023/07/19 07:44:49;;;;;;;6.80;2.60;;;21.90;94.60;;;;;;5038212;28;20202;-79
2023/07/19 07:47:15;;;;;;;2.47;2.10;;;21.90;94.40;;;;;;5037570;28;20199;-72
2023/07/19 07:49:40;;;;;;;2.43;2.07;;;22.00;94.00;;;;;;5036204;28;20257;-72
2023/07/19 07:52:06;;;;;;;3.40;2.25;;;22.00;94.40;;;;;;5037097;28;20623;-73
2023/07/19 07:54:32;;;;;;;3.20;2.33;;;22.10;94.10;;;;;;5036549;28;20202;-72
2023/07/19 07:56:58;;;;;;;2.93;1.83;;;21.90;94.20;;;;;;5035127;28;20199;-74
2023/07/19 07:59:23;;;;;;;2.27;2.03;;;21.90;94.50;;;;;;5033496;28;20211;-77
2023/07/19 08:01:49;;;;;;;3.87;2.03;;;22.00;94.20;;;;;;5034316;28;20294;-76
2023/07/19 08:04:14;;;;;;;3.30;2.30;;;22.10;93.60;;;;;;5033096;28;20575;-76
2023/07/19 08:06:40;;;;;;;2.70;2.37;;;22.10;94.10;;;;;;5037114;28;20211;-75
2023/07/19 08:09:05;;;;;;;4.13;2.47;;;22.20;93.80;;;;;;5036083;28;20317;-76
2023/07/19 08:11:32;;;;;;;4.97;2.80;;;22.30;94.00;;;;;;5032633;28;20202;-75
2023/07/19 08:14:00;;;;;;;2.83;1.80;;;22.20;94.00;;;;;;5036851;28;20203;-72
2023/07/19 08:16:29;;;;;;;2.47;2.28;;;22.20;93.90;;;;;;5030891;28;20861;-72
2023/07/19 08:18:55;;;;;;;4.50;2.50;;;22.20;94.10;;;;;;5035549;28;20218;-73
2023/07/19 08:21:20;;;;;;;5.15;1.98;;;22.20;92.60;;;;;;5034974;28;20284;-75
2023/07/19 08:23:47;;;;;;;3.47;2.45;;;22.10;93.30;;;;;;5037297;28;20280;-71
2023/07/19 08:26:13;;;;;;;6.15;2.40;;;22.00;93.90;;;;;;5028890;28;20925;-70
2023/07/19 08:28:38;;;;;;;3.67;2.67;;;22.00;92.20;;;;;;5034612;28;20657;-74
2023/07/19 08:31:04;;;;;;;2.15;1.90;;;22.00;92.40;;;;;;5037304;28;20700;-74
2023/07/19 08:33:29;;;;;;;3.03;2.17;;;22.10;92.90;;;;;;5033796;28;20252;-72
2023/07/19 08:35:55;;;;;;;4.40;1.90;;;22.10;92.80;;;;;;5036043;28;20195;-74
2023/07/19 08:38:20;;;;;;;3.30;2.20;;;22.10;92.80;;;;;;5036790;28;20203;-73
2023/07/19 08:41:02;;;;;;;4.47;1.53;;;22.30;93.20;;;;;;5033361;28;20610;-74
2023/07/19 08:43:29;;;;;;;4.07;2.45;;;22.40;92.30;;;;;;5030340;28;20226;-69
2023/07/19 08:45:55;;;;;;;2.72;2.05;;;22.40;92.20;;;;;;5037009;28;20306;-73
2023/07/19 08:48:21;;;;;;;7.35;2.28;;;22.40;92.00;;;;;;5030446;28;20275;-72
2023/07/19 08:51:01;;;;;;;2.55;2.03;;;22.50;91.50;;;;;;5028894;28;20484;-75
2023/07/19 08:53:27;;;;;;;3.33;2.00;;;22.70;91.30;;;;;;5034626;28;20202;-68
2023/07/19 08:55:53;;;;;;;2.37;1.93;;;22.60;92.50;;;;;;5033438;28;20213;-74
2023/07/19 08:58:19;;;;;;;1.97;1.87;;;22.40;92.00;;;;;;5037956;28;20211;-78
2023/07/19 09:00:46;;;;;;;7.00;2.80;;;22.30;92.30;;;;;;5016954;28;20191;-75
2023/07/19 09:03:12;;;;;;;4.03;2.28;;;22.40;91.90;;;;;;5035710;28;20194;-77
2023/07/19 09:05:38;;;;;;;6.33;2.80;;;22.50;91.80;;;;;;5034377;28;20221;-73
2023/07/19 09:08:04;;;;;;;7.83;2.63;;;22.60;91.80;;;;;;5035489;28;20655;-72
2023/07/19 09:10:30;;;;;;;3.25;1.70;;;22.60;92.40;;;;;;5036047;28;20223;-74
2023/07/19 09:12:56;;;;;;;4.27;2.13;;;22.50;91.70;;;;;;5036646;28;20290;-71
2023/07/19 09:15:22;;;;;;;11.70;4.93;;;22.90;91.40;;;;;;5030544;28;20253;-70
2023/07/19 09:17:49;;;;;;;2.20;2.00;;;22.80;91.90;;;;;;5033990;28;20190;-73
2023/07/19 09:20:16;;;;;;;3.00;2.00;;;22.90;91.90;;;;;;5034482;28;20756;-68
2023/07/19 09:22:42;;;;;;;5.03;2.33;;;23.00;92.40;;;;;;5031225;28;20630;-70
2023/07/19 09:25:10;;;;;;;5.65;1.77;;;23.00;91.40;;;;;;5032771;28;20215;-68
2023/07/19 09:27:36;;;;;;;5.43;2.20;;;23.20;90.70;;;;;;5034177;28;20231;-69
2023/07/19 09:30:08;;;;;;;4.00;2.17;;;23.30;91.10;;;;;;5034275;28;20215;-73
2023/07/19 09:32:34;;;;;;;2.72;1.75;;;23.30;90.30;;;;;;5032236;28;20290;-71
2023/07/19 09:35:03;;;;;;;2.17;1.85;;;23.80;85.60;;;;;;5035842;28;20279;-70
2023/07/19 09:37:28;;;;;;;3.58;1.70;;;23.80;86.20;;;;;;5034609;28;20789;-71
2023/07/19 09:39:54;;;;;;;3.83;2.30;;;23.80;87.10;;;;;;5035414;28;20676;-69
2023/07/19 09:42:20;;;;;;;3.67;2.35;;;23.90;86.10;;;;;;5035289;28;20191;-72
2023/07/19 09:44:46;;;;;;;5.93;2.58;;;23.90;87.60;;;;;;5034708;28;20293;-69
2023/07/19 09:47:13;;;;;;;2.38;2.17;;;23.90;85.40;;;;;;5036891;28;20211;-69
2023/07/19 09:49:39;;;;;;;3.70;1.95;;;24.00;85.90;;;;;;5030420;28;20227;-71
2023/07/19 09:52:05;;;;;;;3.58;2.38;;;24.10;83.70;;;;;;5020865;28;20665;-71
2023/07/19 09:54:32;;;;;;;2.45;1.80;;;24.10;86.20;;;;;;5037329;28;20588;-71
2023/07/19 09:56:58;;;;;;;2.55;2.05;;;24.00;82.50;;;;;;5037292;28;20254;-67
2023/07/19 09:59:35;;;;;;;10.02;2.72;;;24.10;81.30;;;;;;5028132;28;20304;-68
2023/07/19 10:02:02;;;;;;;2.22;2.10;;;24.00;81.70;;;;;;5041672;28;20922;-72
2023/07/19 10:04:31;;;;;;;2.85;2.47;;;24.00;79.30;;;;;;5039598;28;20204;-69
2023/07/19 10:07:19;;;;;;;2.28;2.08;;;23.80;81.10;;;;;;5032603;28;20199;-68
2023/07/19 10:09:47;;;;;;;2.80;2.05;;;23.90;79.50;;;;;;5037698;28;20215;-73
2023/07/19 10:12:15;;;;;;;4.70;2.15;;;24.20;78.90;;;;;;5039498;28;20207;-70
2023/07/19 10:14:50;;;;;;;2.42;1.92;;;24.30;78.20;;;;;;5031943;28;20665;-70
2023/07/19 10:17:16;;;;;;;2.33;2.13;;;24.30;77.40;;;;;;5037309;28;20202;-74
2023/07/19 10:20:08;;;;;;;2.95;2.40;;;24.40;78.30;;;;;;5026844;28;20200;-76
2023/07/19 10:22:55;;;;;;;2.10;2.00;;;24.60;76.60;;;;;;5029986;28;20221;-75
2023/07/19 10:25:48;;;;;;;2.95;2.00;;;24.50;77.60;;;;;;5036130;28;20249;-74
2023/07/19 10:28:24;;;;;;;3.42;1.83;;;24.70;76.90;;;;;;5022167;28;20213;-70
2023/07/19 10:30:55;;;;;;;2.80;1.92;;;24.80;76.10;;;;;;5036268;28;20726;-74
2023/07/19 10:33:23;;;;;;;2.28;1.77;;;24.80;76.00;;;;;;5035480;28;20236;-72
2023/07/19 10:35:51;;;;;;;2.42;2.03;;;24.60;77.90;;;;;;5035810;28;20225;-69
2023/07/19 10:38:25;;;;;;;4.18;2.65;;;24.90;75.30;;;;;;5035811;28;20191;-68
2023/07/19 10:40:59;;;;;;;7.15;2.17;;;25.00;75.50;;;;;;5034717;28;20223;-72
2023/07/19 10:43:26;;;;;;;3.33;2.10;;;25.10;76.80;;;;;;5035532;28;20263;-72
2023/07/19 10:45:53;;;;;;;3.92;2.00;;;25.10;74.80;;;;;;5031207;28;20293;-72
2023/07/19 10:48:24;;;;;;;2.42;1.90;;;25.00;76.90;;;;;;5034799;28;20299;-71
2023/07/19 10:50:50;;;;;;;2.35;2.13;;;25.30;75.00;;;;;;5035243;28;20697;-68
2023/07/19 10:53:15;;;;;;;2.00;1.90;;;25.20;75.10;;;;;;5035534;28;20203;-76
2023/07/19 10:55:42;;;;;;;4.68;2.22;;;25.50;72.30;;;;;;5031738;28;20194;-76
2023/07/19 10:58:07;;;;;;;2.50;2.10;;;25.40;71.70;;;;;;5035922;28;21844;-75
2023/07/19 11:00:35;;;;;;;3.55;2.45;;;25.40;73.40;;;;;;5031334;28;20254;-74
2023/07/19 11:03:00;;;;;;;3.20;2.15;;;25.40;72.90;;;;;;5034540;28;20210;-74
2023/07/19 11:05:26;;;;;;;3.67;2.45;;;25.20;74.50;;;;;;5034987;28;20204;-74
2023/07/19 11:07:51;;;;;;;3.92;2.17;;;25.40;73.30;;;;;;5035485;28;20537;-67
2023/07/19 11:10:18;;;;;;;5.75;2.53;;;25.30;73.30;;;;;;5026978;28;20587;-73
2023/07/19 11:12:44;;;;;;;5.68;2.92;;;25.00;72.70;;;;;;5031319;28;20282;-69
2023/07/19 11:15:09;;;;;;;2.45;2.03;;;25.00;71.80;;;;;;5032240;28;21446;-70
2023/07/19 11:17:36;;;;;;;4.78;2.17;;;25.20;73.70;;;;;;5033045;28;20210;-72
2023/07/19 11:20:03;;;;;;;3.58;2.28;;;25.30;74.90;;;;;;5035982;28;20223;-69
2023/07/19 11:22:29;;;;;;;3.60;3.00;;;25.40;73.50;;;;;;5034175;28;20192;-74
2023/07/19 11:24:55;;;;;;;3.67;2.10;;;25.30;71.90;;;;;;5035210;28;20211;-69
2023/07/19 11:27:36;;;;;;;3.78;2.03;;;25.20;71.80;;;;;;5032277;28;20198;-73
2023/07/19 11:30:02;;;;;;;5.82;2.17;;;25.20;74.80;;;;;;5033992;28;20252;-68
2023/07/19 11:32:28;;;;;;;2.60;1.63;;;25.30;74.10;;;;;;5031942;28;20196;-69
2023/07/19 11:34:56;;;;;;;2.95;1.90;;;25.40;74.10;;;;;;5033596;28;20693;-73
2023/07/19 11:37:25;;;;;;;5.38;2.00;;;25.50;74.10;;;;;;5035723;28;20190;-70
2023/07/19 11:39:51;;;;;;;3.63;2.00;;;25.50;73.90;;;;;;5017620;28;20706;-72
2023/07/19 11:42:40;;;;;;;6.47;2.10;;;25.50;74.70;;;;;;5036684;28;20221;-71
2023/07/19 11:45:17;;;;;;;1.75;1.65;;;25.70;74.50;;;;;;5032786;28;20198;-70
2023/07/19 11:47:44;;;;;;;2.03;1.58;;;26.10;73.50;;;;;;5032255;28;20202;-69
2023/07/19 11:50:11;;;;;;;3.75;1.80;;;26.00;73.90;;;;;;5034568;28;20213;-70
2023/07/19 11:52:46;;;;;;;5.15;1.85;;;26.20;74.10;;;;;;5037968;28;20214;-77
2023/07/19 11:55:16;;;;;;;2.45;1.75;;;25.90;72.80;;;;;;5033540;28;20267;-74
2023/07/19 11:57:45;;;;;;;2.38;2.03;;;25.90;73.90;;;;;;5034094;28;20287;-71
2023/07/19 12:00:14;;;;;;;4.78;1.92;;;26.00;72.60;;;;;;5029213;28;20210;-68
2023/07/19 12:02:41;;;;;;;5.13;3.78;;;25.80;73.80;;;;;;5035025;28;20305;-70
2023/07/19 12:05:06;;;;;;;2.83;1.98;;;25.60;73.20;;;;;;5037258;28;20216;-71
2023/07/19 12:07:32;;;;;;;2.17;1.73;;;25.60;73.40;;;;;;5015754;28;20209;-68
2023/07/19 12:10:00;;;;;;;1.73;1.63;;;25.80;74.80;;;;;;5036277;28;20643;-72
2023/07/19 12:12:26;;;;;;;4.28;1.65;;;25.80;73.10;;;;;;5032359;28;20189;-78
2023/07/19 12:14:51;;;;;;;3.20;1.90;;;25.80;73.00;;;;;;5034339;28;20204;-68
2023/07/19 12:17:17;;;;;;;3.75;2.40;;;25.40;72.70;;;;;;5036949;28;20194;-72
2023/07/19 12:19:42;;;;;;;3.72;2.63;;;25.30;74.00;;;;;;5034842;28;20200;-71
2023/07/19 12:22:08;;;;;;;4.80;2.22;;;25.30;74.40;;;;;;5033868;28;20213;-68
2023/07/19 12:24:33;;;;;;;10.80;2.25;;;25.20;73.40;;;;;;5033049;28;20288;-74
2023/07/19 12:26:59;;;;;;;7.20;2.30;;;25.00;73.00;;;;;;5029754;28;20784;-82
2023/07/19 12:29:25;;;;;;;8.35;2.63;;;24.90;73.60;;;;;;5034464;28;20280;-73
2023/07/19 12:31:51;;;;;;;3.22;2.00;;;24.80;74.00;;;;;;5034206;28;20732;-73
2023/07/19 12:34:20;;;;;;;2.47;2.15;;;24.70;73.20;;;;;;5035580;28;20262;-70
2023/07/19 12:36:47;;;;;;;5.20;2.10;;;24.60;74.70;;;;;;5034915;28;20630;-73
2023/07/19 12:39:13;;;;;;;3.15;1.95;;;24.50;75.90;;;;;;5030918;28;20286;-69
2023/07/19 12:41:39;;;;;;;4.45;1.83;;;24.70;76.80;;;;;;5034974;28;20211;-74
2023/07/19 12:44:06;;;;;;;2.30;2.10;;;24.70;75.90;;;;;;5034475;28;20190;-76